createdAt,value
2019-04-11T00:00:50.472Z,83.99
2019-04-11T00:03:19.519Z,84.54
2019-04-11T00:05:48.330Z,84.91
2019-04-11T00:08:17.594Z,84.96
2019-04-11T00:10:49.184Z,85.15
2019-04-11T00:13:23.822Z,85.31
2019-04-11T00:15:50.697Z,84.45
2019-04-11T00:18:22.877Z,84.53
2019-04-11T00:20:52.801Z,84.32
2019-04-11T00:23:24.017Z,84.92
2019-04-11T00:25:52.748Z,84.61
2019-04-11T00:28:21.669Z,83.28
2019-04-11T00:30:53.128Z,83.44
2019-04-11T00:33:23.145Z,83.56
2019-04-11T00:35:52.367Z,82.97
2019-04-11T00:38:21.491Z,83.17
2019-04-11T00:40:51.769Z,83.25
2019-04-11T00:43:30.491Z,83.11
2019-04-11T00:45:51.855Z,83.43
2019-04-11T00:48:21.815Z,83.60
2019-04-11T00:50:51.716Z,82.90
2019-04-11T00:53:20.629Z,82.22
2019-04-11T00:55:51.646Z,82.52
2019-04-11T00:58:21.332Z,82.53
2019-04-11T01:00:53.428Z,83.57
2019-04-11T01:03:22.422Z,84.37
2019-04-11T01:05:51.947Z,84.75
2019-04-11T01:08:21.829Z,84.36
2019-04-11T01:10:51.799Z,84.65
2019-04-11T01:13:24.019Z,84.59
2019-04-11T01:16:02.959Z,84.09
2019-04-11T01:18:31.921Z,84.13
2019-04-11T01:21:02.064Z,83.46
2019-04-11T01:23:33.833Z,83.29
2019-04-11T01:26:03.242Z,82.79
2019-04-11T01:28:34.447Z,82.96
2019-04-11T01:31:06.287Z,82.38
2019-04-11T01:33:35.934Z,81.49
2019-04-11T01:36:05.031Z,81.75
2019-04-11T01:38:41.288Z,82.55
2019-04-11T01:41:10.200Z,83.93
2019-04-11T01:43:52.117Z,83.41
2019-04-11T01:46:10.910Z,83.05
2019-04-11T01:49:01.858Z,82.85
2019-04-11T01:51:31.689Z,83.33
2019-04-11T01:54:01.520Z,84.06
2019-04-11T01:56:31.412Z,84.70
2019-04-11T01:59:00.352Z,83.66
2019-04-11T02:01:53.375Z,83.88
2019-04-11T02:04:40.475Z,83.19
2019-04-11T02:07:12.209Z,83.47
2019-04-11T02:09:41.133Z,83.97
2019-04-11T02:12:10.070Z,84.25
2019-04-11T02:14:39.660Z,84.74
2019-04-11T02:17:10.501Z,85.24
2019-04-11T02:19:40.480Z,84.87
2019-04-11T02:22:46.653Z,84.60
2019-04-11T02:25:28.228Z,84.40
2019-04-11T02:27:58.109Z,84.11
2019-04-11T02:30:27.926Z,83.85
2019-04-11T02:32:58.324Z,83.57
2019-04-11T02:35:28.791Z,83.67
2019-04-11T02:37:59.147Z,84.24
2019-04-11T02:40:30.045Z,84.28
2019-04-11T02:43:00.252Z,84.51
2019-04-11T02:45:43.881Z,84.82
2019-04-11T02:48:01.578Z,84.31
2019-04-11T02:50:32.158Z,83.96
2019-04-11T02:53:02.873Z,83.85
2019-04-11T02:55:33.390Z,83.19
2019-04-11T02:58:03.962Z,82.67
2019-04-11T03:00:35.486Z,83.61
2019-04-11T03:03:05.732Z,84.28
2019-04-11T03:05:35.162Z,84.37
2019-04-11T03:08:07.846Z,84.59
2019-04-11T03:10:37.563Z,84.87
2019-04-11T03:13:08.241Z,85.16
2019-04-11T03:15:48.874Z,85.74
2019-04-11T03:18:09.921Z,86.58
2019-04-11T03:20:47.293Z,85.78
2019-04-11T03:23:14.367Z,85.55
2019-04-11T03:25:42.707Z,85.16
2019-04-11T03:28:16.772Z,85.48
2019-04-11T03:31:06.881Z,85.91
2019-04-11T03:38:39.519Z,85.86
2019-04-11T03:41:05.891Z,85.17
2019-04-11T03:43:31.402Z,85.63
2019-04-11T03:46:03.908Z,85.58
2019-04-11T03:48:33.531Z,85.67
2019-04-11T03:50:52.521Z,85.47
2019-04-11T03:53:23.442Z,84.75
2019-04-11T03:55:51.631Z,84.67
2019-04-11T03:58:21.818Z,85.41
2019-04-11T04:00:53.504Z,85.46
2019-04-11T04:03:22.580Z,85.21
2019-04-11T04:05:54.936Z,85.38
2019-04-11T04:08:24.810Z,84.79
2019-04-11T04:11:26.712Z,84.55
2019-04-11T04:14:24.301Z,84.98
2019-04-11T04:17:25.495Z,84.93
2019-04-11T04:20:21.453Z,85.79
2019-04-11T04:23:03.207Z,85.75
2019-04-11T04:25:32.605Z,85.89
2019-04-11T04:28:03.072Z,85.67
2019-04-11T04:30:33.546Z,85.45
2019-04-11T04:33:02.938Z,85.12
2019-04-11T04:35:33.737Z,85.71
2019-04-11T04:38:05.033Z,85.08
2019-04-11T04:40:50.881Z,85.08
2019-04-11T04:43:08.180Z,85.38
2019-04-11T04:45:58.342Z,85.57
2019-04-11T04:48:11.448Z,85.43
2019-04-11T04:50:39.262Z,85.77
2019-04-11T04:53:09.271Z,85.71
2019-04-11T04:55:38.808Z,85.19
2019-04-11T04:58:09.098Z,85.40
2019-04-11T05:00:39.702Z,85.60
2019-04-11T05:03:09.979Z,85.42
2019-04-11T05:05:39.106Z,85.48
2019-04-11T05:08:08.403Z,85.63
2019-04-11T05:10:38.194Z,85.87
2019-04-11T05:13:07.786Z,85.74
2019-04-11T05:15:36.699Z,86.02
2019-04-11T05:18:06.154Z,86.11
2019-04-11T05:20:35.043Z,86.12
2019-04-11T05:23:04.309Z,85.42
2019-04-11T05:25:33.273Z,85.44
2019-04-11T05:28:02.312Z,85.66
2019-04-11T05:30:31.510Z,85.42
2019-04-11T05:33:00.393Z,85.72
2019-04-11T05:35:29.875Z,85.50
2019-04-11T05:37:59.843Z,85.08
2019-04-11T05:40:28.812Z,85.28
2019-04-11T05:42:57.771Z,85.03
2019-04-11T05:45:26.576Z,85.20
2019-04-11T05:47:57.967Z,85.29
2019-04-11T05:50:32.197Z,84.86
2019-04-11T05:53:03.831Z,84.85
2019-04-11T05:55:36.366Z,84.63
2019-04-11T05:58:10.855Z,84.35
2019-04-11T06:00:48.780Z,84.74
2019-04-11T06:03:17.861Z,84.37
2019-04-11T06:06:08.865Z,83.96
2019-04-11T06:08:37.921Z,82.87
2019-04-11T06:11:17.265Z,82.07
2019-04-11T06:13:50.908Z,82.25
2019-04-11T06:16:20.818Z,80.12
2019-04-11T06:19:06.158Z,77.96
2019-04-11T06:21:42.328Z,77.67
2019-04-11T06:24:31.956Z,76.69
2019-04-11T06:27:15.870Z,75.54
2019-04-11T06:30:05.888Z,73.04
2019-04-11T06:32:56.822Z,73.49
2019-04-11T06:35:39.965Z,71.90
2019-04-11T06:38:38.651Z,72.16
2019-04-11T06:41:14.535Z,70.96
2019-04-11T06:44:06.799Z,70.64
2019-04-11T06:46:55.765Z,70.92
2019-04-11T06:49:36.792Z,70.12
2019-04-11T06:52:06.991Z,69.02
2019-04-11T06:55:06.784Z,67.35
2019-04-11T06:57:36.245Z,68.15
2019-04-11T07:00:07.282Z,68.38
2019-04-11T07:02:39.277Z,67.57
2019-04-11T07:05:09.055Z,67.82
2019-04-11T07:07:38.354Z,68.09
2019-04-11T07:10:09.536Z,66.70
2019-04-11T07:12:47.534Z,67.66
2019-04-11T07:15:19.242Z,67.70
2019-04-11T07:18:07.454Z,66.53
2019-04-11T07:20:49.986Z,65.66
2019-04-11T07:23:36.547Z,66.17
2019-04-11T07:26:30.684Z,65.66
2019-04-11T07:29:27.422Z,65.87
2019-04-11T07:32:28.083Z,65.58
2019-04-11T07:35:21.978Z,64.14
2019-04-11T07:37:53.408Z,63.37
2019-04-11T07:40:47.476Z,62.40
2019-04-11T07:43:22.456Z,61.85
2019-04-11T07:46:17.083Z,62.59
2019-04-11T07:48:46.905Z,59.99
2019-04-11T07:51:23.578Z,58.89
2019-04-11T07:53:54.645Z,60.21
2019-04-11T07:56:48.691Z,59.61
2019-04-11T07:59:46.711Z,58.79
2019-04-11T08:02:49.761Z,57.46
2019-04-11T08:05:36.700Z,59.48
2019-04-11T08:08:23.596Z,57.89
2019-04-11T08:11:23.721Z,56.39
2019-04-11T08:14:14.245Z,56.79
2019-04-11T08:17:28.205Z,55.75
2019-04-11T08:20:05.832Z,54.90
2019-04-11T08:22:41.191Z,55.80
2019-04-11T08:25:25.085Z,56.12
2019-04-11T08:28:07.874Z,56.36
2019-04-11T08:30:55.181Z,55.69
2019-04-11T08:33:24.647Z,52.80
2019-04-11T08:36:13.718Z,52.64
2019-04-11T08:38:44.737Z,52.77
2019-04-11T08:41:33.852Z,51.94
2019-04-11T08:44:07.765Z,51.94
2019-04-11T08:46:42.708Z,50.71
2019-04-11T08:49:20.111Z,52.48
2019-04-11T08:51:49.602Z,51.34
2019-04-11T08:54:39.900Z,50.63
2019-04-11T08:57:10.080Z,50.51
2019-04-11T08:59:57.672Z,50.26
2019-04-11T09:02:35.236Z,50.68
2019-04-11T09:05:23.177Z,50.94
2019-04-11T09:08:14.198Z,50.88
2019-04-11T09:11:01.265Z,49.56
2019-04-11T09:13:47.353Z,52.07
2019-04-11T09:16:38.181Z,50.27
2019-04-11T09:19:14.691Z,50.28
2019-04-11T09:22:01.504Z,50.46
2019-04-11T09:24:50.503Z,51.02
2019-04-11T09:27:38.418Z,51.08
2019-04-11T09:30:13.362Z,50.00
2019-04-11T09:33:06.811Z,50.62
2019-04-11T09:35:35.941Z,50.99
2019-04-11T09:38:04.882Z,49.19
2019-04-11T09:40:36.203Z,49.71
2019-04-11T09:43:13.536Z,49.48
2019-04-11T09:46:00.008Z,47.85
2019-04-11T09:48:39.989Z,51.30
2019-04-11T09:51:29.035Z,50.44
2019-04-11T09:54:08.534Z,50.60
2019-04-11T09:56:51.801Z,49.83
2019-04-11T09:59:25.286Z,47.82
2019-04-11T10:02:14.447Z,48.03
2019-04-11T10:04:44.077Z,48.23
2019-04-11T10:07:44.204Z,45.77
2019-04-11T10:10:35.322Z,45.96
2019-04-11T10:13:22.855Z,47.70
2019-04-11T10:16:29.167Z,46.84
2019-04-11T10:19:07.627Z,44.55
2019-04-11T10:21:37.802Z,44.55
2019-04-11T10:24:26.379Z,44.15
2019-04-11T10:27:01.105Z,46.03
2019-04-11T10:29:50.423Z,45.38
2019-04-11T10:32:23.338Z,45.83
2019-04-11T10:35:10.209Z,44.21
2019-04-11T10:37:40.475Z,45.74
2019-04-11T10:40:28.142Z,42.83
2019-04-11T10:42:58.090Z,43.81
2019-04-11T10:45:48.943Z,43.90
2019-04-11T10:48:19.975Z,44.62
2019-04-11T10:51:17.127Z,43.93
2019-04-11T10:53:46.990Z,44.71
2019-04-11T10:56:41.167Z,43.60
2019-04-11T10:59:10.289Z,41.32
2019-04-11T11:02:04.595Z,41.48
2019-04-11T11:04:39.428Z,42.52
2019-04-11T11:07:14.413Z,40.83
2019-04-11T11:09:47.379Z,40.49
2019-04-11T11:12:25.704Z,41.43
2019-04-11T11:15:07.353Z,41.05
2019-04-11T11:18:33.376Z,38.35
2019-04-11T11:20:54.597Z,40.10
2019-04-11T11:23:49.237Z,39.15
2019-04-11T11:26:22.561Z,41.70
2019-04-11T11:29:05.285Z,39.50
2019-04-11T11:31:36.346Z,40.72
2019-04-11T11:34:07.231Z,40.24
2019-04-11T11:36:54.958Z,41.02
2019-04-11T11:39:43.666Z,40.07
2019-04-11T11:42:32.449Z,41.01
2019-04-11T11:45:05.630Z,41.01
2019-04-11T11:47:55.436Z,40.13
2019-04-11T11:50:24.794Z,41.58
2019-04-11T11:53:13.300Z,41.07
2019-04-11T11:55:43.584Z,40.17
2019-04-11T11:58:27.982Z,40.76
2019-04-11T12:01:01.149Z,40.76
2019-04-11T12:03:46.686Z,40.56
2019-04-11T12:06:19.813Z,39.67
2019-04-11T12:09:08.041Z,39.78
2019-04-11T12:11:39.776Z,37.78
2019-04-11T12:14:31.311Z,38.75
2019-04-11T12:17:10.422Z,39.24
2019-04-11T12:19:53.864Z,38.83
2019-04-11T12:22:21.500Z,37.32
2019-04-11T12:24:58.731Z,38.77
2019-04-11T12:27:50.099Z,39.85
2019-04-11T12:30:46.510Z,39.86
2019-04-11T12:33:33.148Z,41.11
2019-04-11T12:36:14.550Z,40.37
2019-04-11T12:39:01.240Z,39.86
2019-04-11T12:41:47.041Z,41.35
2019-04-11T12:44:50.492Z,41.56
2019-04-11T12:47:54.194Z,40.61
2019-04-11T12:50:41.418Z,41.74
2019-04-11T12:53:18.095Z,41.31
2019-04-11T12:55:52.932Z,40.55
2019-04-11T12:58:34.867Z,41.84
2019-04-11T13:01:17.895Z,41.95
2019-04-11T13:04:24.523Z,42.89
2019-04-11T13:07:01.307Z,42.35
2019-04-11T13:10:01.349Z,41.45
2019-04-11T13:12:47.769Z,42.29
2019-04-11T13:15:22.774Z,42.76
2019-04-11T13:18:22.844Z,42.57
2019-04-11T13:20:56.175Z,44.18
2019-04-11T13:23:35.133Z,42.74
2019-04-11T13:26:32.205Z,40.57
2019-04-11T13:29:29.741Z,41.54
2019-04-11T13:32:16.197Z,42.17
2019-04-11T13:34:45.943Z,42.45
2019-04-11T13:37:33.808Z,41.30
2019-04-11T13:40:27.978Z,41.65
2019-04-11T13:43:15.372Z,43.19
2019-04-11T13:45:54.650Z,42.90
2019-04-11T13:48:41.984Z,42.81
2019-04-11T13:51:18.676Z,42.81
2019-04-11T13:54:15.427Z,43.94
2019-04-11T13:57:00.378Z,44.34
2019-04-11T13:59:47.363Z,43.61
2019-04-11T14:02:23.724Z,44.04
2019-04-11T14:04:54.466Z,42.99
2019-04-11T14:07:24.221Z,44.64
2019-04-11T14:09:53.268Z,45.20
2019-04-11T14:12:22.104Z,44.55
2019-04-11T14:15:00.497Z,44.18
2019-04-11T14:18:05.114Z,43.94
2019-04-11T14:20:45.968Z,43.57
2019-04-11T14:23:33.826Z,44.26
2019-04-11T14:26:22.480Z,45.64
2019-04-11T14:29:10.377Z,44.59
2019-04-11T14:31:46.442Z,43.65
2019-04-11T14:34:23.585Z,44.62
2019-04-11T14:37:14.562Z,44.09
2019-04-11T14:39:45.664Z,46.26
2019-04-11T14:42:28.170Z,46.26
2019-04-11T14:44:57.045Z,44.23
2019-04-11T14:47:43.344Z,45.47
2019-04-11T14:50:13.065Z,43.67
2019-04-11T14:53:03.844Z,45.00
2019-04-11T14:55:36.820Z,43.86
2019-04-11T14:58:27.812Z,45.04
2019-04-11T15:00:56.534Z,45.04
2019-04-11T15:03:44.229Z,45.84
2019-04-11T15:06:24.965Z,45.06
2019-04-11T15:09:11.639Z,46.91
2019-04-11T15:11:55.866Z,45.96
2019-04-11T15:14:36.519Z,46.11
2019-04-11T15:17:17.413Z,46.63
2019-04-11T15:19:56.811Z,46.39
2019-04-11T15:22:40.567Z,46.84
2019-04-11T15:25:20.086Z,45.54
2019-04-11T15:28:08.044Z,45.54
2019-04-11T15:30:38.641Z,46.51
2019-04-11T15:33:36.039Z,47.50
2019-04-11T15:36:05.007Z,48.50
2019-04-11T15:38:43.276Z,47.89
2019-04-11T15:41:21.224Z,48.96
2019-04-11T15:44:07.841Z,47.62
2019-04-11T15:46:38.268Z,47.48
2019-04-11T15:49:30.360Z,47.00
2019-04-11T15:51:59.014Z,45.94
2019-04-11T15:54:47.321Z,46.91
2019-04-11T15:57:32.619Z,47.18
2019-04-11T16:00:29.598Z,46.12
2019-04-11T16:03:16.731Z,46.69
2019-04-11T16:06:03.024Z,45.47
2019-04-11T16:08:38.780Z,46.43
2019-04-11T16:11:24.873Z,47.43
2019-04-11T16:14:04.389Z,46.77
2019-04-11T16:17:13.731Z,47.51
2019-04-11T16:20:09.125Z,49.07
2019-04-11T16:22:50.320Z,48.10
2019-04-11T16:25:21.978Z,48.35
2019-04-11T16:28:09.822Z,49.27
2019-04-11T16:30:43.899Z,49.62
2019-04-11T16:33:24.445Z,48.85
2019-04-11T16:36:00.584Z,48.24
2019-04-11T16:38:32.047Z,48.24
2019-04-11T16:41:19.235Z,49.43
2019-04-11T16:43:54.659Z,49.57
2019-04-11T16:46:41.900Z,48.89
2019-04-11T16:49:12.929Z,48.61
2019-04-11T16:51:42.681Z,48.46
2019-04-11T16:54:12.276Z,49.49
2019-04-11T16:56:43.889Z,49.88
2019-04-11T16:59:13.234Z,49.45
2019-04-11T17:01:42.898Z,49.80
2019-04-11T17:04:11.914Z,48.84
2019-04-11T17:06:48.565Z,48.50
2019-04-11T17:09:36.345Z,47.90
2019-04-11T17:12:05.434Z,49.37
2019-04-11T17:14:34.323Z,48.60
2019-04-11T17:17:14.256Z,50.58
2019-04-11T17:19:35.824Z,49.27
2019-04-11T17:22:04.092Z,50.02
2019-04-11T17:24:32.918Z,49.90
2019-04-11T17:27:01.652Z,49.24
2019-04-11T17:29:30.780Z,48.19
2019-04-11T17:31:59.812Z,50.01
2019-04-11T17:34:32.380Z,48.17
2019-04-11T17:37:02.894Z,47.61
2019-04-11T17:39:31.907Z,48.89
2019-04-11T17:42:01.484Z,48.98
2019-04-11T17:44:31.338Z,49.11
2019-04-11T17:47:00.445Z,50.76
2019-04-11T17:49:29.232Z,49.38
2019-04-11T17:51:58.088Z,50.44
2019-04-11T17:54:26.913Z,50.59
2019-04-11T17:56:58.886Z,49.79
2019-04-11T17:59:28.877Z,50.22
2019-04-11T18:01:57.072Z,51.14
2019-04-11T18:04:25.796Z,50.00
2019-04-11T18:06:54.621Z,49.85
2019-04-11T18:09:25.647Z,51.60
2019-04-11T18:11:56.113Z,51.58
2019-04-11T18:14:24.559Z,50.80
2019-04-11T18:16:53.268Z,52.08
2019-04-11T18:19:21.992Z,50.43
2019-04-11T18:21:51.323Z,50.76
2019-04-11T18:24:20.514Z,52.31
2019-04-11T18:26:51.722Z,52.86
2019-04-11T18:29:23.021Z,51.84
2019-04-11T18:31:52.432Z,51.41
2019-04-11T18:34:21.184Z,52.75
2019-04-11T18:36:49.919Z,51.47
2019-04-11T18:39:21.183Z,50.92
2019-04-11T18:41:50.227Z,52.23
2019-04-11T18:44:19.064Z,51.36
2019-04-11T18:46:48.097Z,50.55
2019-04-11T18:49:16.954Z,53.08
2019-04-11T18:51:48.471Z,51.30
2019-04-11T18:54:17.002Z,51.91
2019-04-11T18:56:45.741Z,52.54
2019-04-11T18:59:14.587Z,51.98
2019-04-11T19:01:43.429Z,53.27
2019-04-11T19:04:12.695Z,52.68
2019-04-11T19:06:43.059Z,53.98
2019-04-11T19:09:14.854Z,51.75
2019-04-11T19:11:46.298Z,53.18
2019-04-11T19:14:16.000Z,52.82
2019-04-11T19:16:45.968Z,53.66
2019-04-11T19:19:18.007Z,53.52
2019-04-11T19:21:50.797Z,52.21
2019-04-11T19:24:19.038Z,52.41
2019-04-11T19:26:47.769Z,52.98
2019-04-11T19:29:16.565Z,50.75
2019-04-11T19:31:45.438Z,53.58
2019-04-11T19:34:14.171Z,51.32
2019-04-11T19:36:43.333Z,53.59
2019-04-11T19:39:13.953Z,50.91
2019-04-11T19:41:42.828Z,52.68
2019-04-11T19:44:11.683Z,50.93
2019-04-11T19:46:40.996Z,53.16
2019-04-11T19:49:10.290Z,52.92
2019-04-11T19:51:39.012Z,52.16
2019-04-11T19:54:07.831Z,52.30
2019-04-11T19:56:47.140Z,52.02
2019-04-11T19:59:16.004Z,52.12
2019-04-11T20:01:45.061Z,52.25
2019-04-11T20:04:13.899Z,49.69
2019-04-11T20:06:42.735Z,50.28
2019-04-11T20:09:11.742Z,51.43
2019-04-11T20:11:40.492Z,52.02
2019-04-11T20:14:09.248Z,51.39
2019-04-11T20:16:41.997Z,52.31
2019-04-11T20:19:08.959Z,52.28
2019-04-11T20:21:38.510Z,51.69
2019-04-11T20:24:07.892Z,52.23
2019-04-11T20:26:36.765Z,53.00
2019-04-11T20:29:05.576Z,52.45
2019-04-11T20:31:34.326Z,51.42
2019-04-11T20:34:06.890Z,51.33
2019-04-11T20:36:35.320Z,52.81
2019-04-11T20:39:06.135Z,52.61
2019-04-11T20:41:35.567Z,51.14
2019-04-11T20:44:04.567Z,51.49
2019-04-11T20:46:34.757Z,50.25
2019-04-11T20:49:03.730Z,51.23
2019-04-11T20:51:32.847Z,51.71
2019-04-11T20:54:01.986Z,50.00
2019-04-11T20:56:31.419Z,51.54
2019-04-11T20:59:00.887Z,50.64
2019-04-11T21:01:29.987Z,50.39
2019-04-11T21:04:00.344Z,50.10
2019-04-11T21:06:32.042Z,51.20
2019-04-11T21:09:03.053Z,50.97
2019-04-11T21:11:31.526Z,50.56
2019-04-11T21:14:00.707Z,49.87
2019-04-11T21:16:30.186Z,50.69
2019-04-11T21:18:58.929Z,50.86
2019-04-11T21:21:28.180Z,50.54
2019-04-11T21:23:57.933Z,50.60
2019-04-11T21:26:29.462Z,51.40
2019-04-11T21:28:59.434Z,51.45
2019-04-11T21:31:30.883Z,52.26
2019-04-11T21:33:59.360Z,51.71
2019-04-11T21:36:31.495Z,52.23
2019-04-11T21:39:03.592Z,53.03
2019-04-11T21:41:31.269Z,52.27
2019-04-11T21:44:00.051Z,51.18
2019-04-11T21:46:31.498Z,51.36
2019-04-11T21:48:59.660Z,52.76
2019-04-11T21:51:29.546Z,52.34
2019-04-11T21:53:59.002Z,52.58
2019-04-11T21:56:28.438Z,52.90
2019-04-11T21:58:57.608Z,54.03
2019-04-11T22:01:26.782Z,53.49
2019-04-11T22:03:57.731Z,54.18
2019-04-11T22:06:28.066Z,53.24
2019-04-11T22:08:56.643Z,52.42
2019-04-11T22:11:25.403Z,52.20
2019-04-11T22:13:54.128Z,52.83
2019-04-11T22:16:22.891Z,53.24
2019-04-11T22:18:51.624Z,55.11
2019-04-11T22:21:20.392Z,53.90
2019-04-11T22:23:49.327Z,53.94
2019-04-11T22:26:18.060Z,54.39
2019-04-11T22:28:46.798Z,55.11
2019-04-11T22:31:15.631Z,55.86
2019-04-11T22:33:52.827Z,56.40
2019-04-11T22:36:21.581Z,55.74
2019-04-11T22:38:50.296Z,57.40
2019-04-11T22:41:19.064Z,57.78
2019-04-11T22:43:48.130Z,57.97
2019-04-11T22:46:20.846Z,58.92
2019-04-11T22:48:47.339Z,56.98
2019-04-11T22:51:16.106Z,58.10
2019-04-11T22:53:44.834Z,58.25
2019-04-11T22:56:13.707Z,56.43
2019-04-11T22:58:43.531Z,58.16
2019-04-11T23:01:13.990Z,57.15
2019-04-11T23:04:04.264Z,57.74
2019-04-11T23:06:33.394Z,58.62
2019-04-11T23:09:02.245Z,58.66
2019-04-11T23:11:32.116Z,58.87
2019-04-11T23:14:01.002Z,58.64
2019-04-11T23:16:29.835Z,59.05
2019-04-11T23:19:02.110Z,60.02
2019-04-11T23:21:31.388Z,60.21
2019-04-11T23:24:11.812Z,60.29
2019-04-11T23:26:37.204Z,60.54
2019-04-11T23:29:06.012Z,60.15
2019-04-11T23:31:34.825Z,61.51
2019-04-11T23:34:03.811Z,60.96
2019-04-11T23:36:32.843Z,61.13
2019-04-11T23:39:01.839Z,62.45
2019-04-11T23:41:30.744Z,62.77
2019-04-11T23:44:04.419Z,62.25
2019-04-11T23:46:33.353Z,62.58
2019-04-11T23:49:02.342Z,62.23
2019-04-11T23:51:31.332Z,62.93
2019-04-11T23:54:00.912Z,63.21
2019-04-11T23:56:30.607Z,62.75
2019-04-11T23:59:02.715Z,62.93
